Terminal Aerodrome Forecast
Issued by NWS Springfield, MO

Home | Current Version | Previous Version | Text Only | Print | Product List | Glossary On
Versions: 1 2 3 4 5 6 7 8 9 10 11 12 13 14 15 16 17 18 19 20 21
000
FTUS43 KSGF 230520
TAFSGF
TAF
KSGF 230520Z 2306/2406 17006KT P6SM BKN120
     FM230800 VRB05KT P6SM VCSH BKN090
     FM231300 31009KT P6SM VCSH OVC030
     FM231900 31011G18KT P6SM VCSH BKN040
     FM240000 31008KT P6SM BKN100=

USA.gov is the U.S. government's official web portal to all federal, state and local government web resources and services.